createdAt,value
2023-05-05T00:01:51.642Z,62.45
2023-05-05T00:04:26.479Z,62.68
2023-05-05T00:07:25.114Z,63.27
2023-05-05T00:09:53.678Z,63.81
2023-05-05T00:12:33.934Z,64.31
2023-05-05T00:15:12.178Z,64.68
2023-05-05T00:17:47.440Z,64.76
2023-05-05T00:21:10.154Z,64.75
2023-05-05T00:23:41.992Z,65.04
2023-05-05T00:26:19.573Z,64.97
2023-05-05T00:29:19.513Z,65.00
2023-05-05T00:32:12.388Z,64.45
2023-05-05T00:35:01.132Z,64.22
2023-05-05T00:37:40.920Z,64.16
2023-05-05T00:40:20.714Z,64.15
2023-05-05T00:42:52.600Z,64.08
2023-05-05T00:45:47.872Z,64.12
2023-05-05T00:48:33.997Z,63.80
2023-05-05T00:51:26.744Z,63.98
2023-05-05T00:53:59.065Z,64.09
2023-05-05T00:56:38.972Z,63.83
2023-05-05T00:59:18.721Z,63.72
2023-05-05T01:01:53.096Z,63.63
2023-05-05T01:04:32.366Z,63.64
2023-05-05T01:07:17.942Z,63.42
2023-05-05T01:10:20.114Z,63.30
2023-05-05T01:13:23.426Z,63.19
2023-05-05T01:16:06.353Z,63.08
2023-05-05T01:18:55.506Z,63.09
2023-05-05T01:22:01.468Z,63.22
2023-05-05T01:24:53.588Z,63.19
2023-05-05T01:27:55.721Z,63.32
2023-05-05T01:30:48.921Z,63.45
2023-05-05T01:33:37.473Z,63.50
2023-05-05T01:36:13.740Z,63.60
2023-05-05T01:38:48.612Z,63.52
2023-05-05T01:41:27.184Z,63.47
2023-05-05T01:44:14.724Z,63.41
2023-05-05T01:46:54.308Z,63.44
2023-05-05T01:49:33.188Z,63.53
2023-05-05T01:52:09.961Z,63.49
2023-05-05T01:54:43.151Z,63.58
2023-05-05T01:57:27.180Z,63.64
2023-05-05T02:00:00.146Z,63.76
2023-05-05T02:02:41.383Z,63.70
2023-05-05T02:05:23.056Z,63.89
2023-05-05T02:08:05.857Z,64.25
2023-05-05T02:10:48.135Z,64.40
2023-05-05T02:13:19.689Z,64.76
2023-05-05T02:15:51.122Z,65.00
2023-05-05T02:18:23.545Z,65.21
2023-05-05T02:20:55.411Z,65.27
2023-05-05T02:23:58.548Z,65.25
2023-05-05T02:26:38.158Z,65.49
2023-05-05T02:29:27.509Z,65.54
2023-05-05T02:32:02.834Z,65.91
2023-05-05T02:34:43.526Z,65.98
2023-05-05T02:37:27.472Z,66.02
2023-05-05T02:40:20.196Z,66.28
2023-05-05T02:42:53.860Z,66.49
2023-05-05T02:45:39.910Z,66.46
2023-05-05T02:48:13.418Z,66.49
2023-05-05T02:50:45.282Z,66.45
2023-05-05T02:53:28.286Z,66.42
2023-05-05T02:56:41.734Z,66.44
2023-05-05T02:59:31.519Z,66.51
2023-05-05T03:02:17.093Z,66.52
2023-05-05T03:05:26.135Z,66.62
2023-05-05T03:08:10.230Z,66.52
2023-05-05T03:11:04.266Z,66.50
2023-05-05T03:13:43.275Z,66.51
2023-05-05T03:16:18.870Z,66.56
2023-05-05T03:18:58.773Z,66.61
2023-05-05T03:22:00.132Z,66.64
2023-05-05T03:24:34.961Z,66.73
2023-05-05T03:27:12.658Z,66.68
2023-05-05T03:29:59.692Z,66.79
2023-05-05T03:32:51.872Z,66.95
2023-05-05T03:35:36.154Z,66.87
2023-05-05T03:38:19.189Z,66.72
2023-05-05T03:41:14.302Z,66.69
2023-05-05T03:43:46.542Z,66.58
2023-05-05T03:46:25.896Z,66.66
2023-05-05T03:48:57.397Z,66.51
2023-05-05T03:51:27.064Z,66.54
2023-05-05T03:53:58.926Z,66.42
2023-05-05T03:56:33.236Z,66.42
2023-05-05T03:59:10.821Z,66.32
2023-05-05T04:01:50.797Z,66.44
2023-05-05T04:04:28.643Z,66.28
2023-05-05T04:07:08.622Z,66.18
2023-05-05T04:09:48.994Z,66.15
2023-05-05T04:12:23.110Z,66.08
2023-05-05T04:14:55.169Z,66.14
2023-05-05T04:17:26.653Z,66.07
2023-05-05T04:20:15.259Z,66.10
2023-05-05T04:23:01.470Z,66.41
2023-05-05T04:25:46.644Z,66.59
2023-05-05T04:28:22.410Z,66.78
2023-05-05T04:30:51.819Z,66.86
2023-05-05T04:33:28.555Z,66.79
2023-05-05T04:35:58.613Z,66.72
2023-05-05T04:38:30.497Z,66.58
2023-05-05T04:41:06.471Z,66.68
2023-05-05T04:43:43.502Z,66.41
2023-05-05T04:46:17.487Z,66.00
2023-05-05T04:48:47.837Z,65.47
2023-05-05T04:51:32.736Z,64.91
2023-05-05T04:54:08.959Z,64.69
2023-05-05T04:56:40.020Z,64.25
2023-05-05T04:59:17.603Z,64.05
2023-05-05T05:01:49.284Z,64.27
2023-05-05T05:04:22.592Z,63.92
2023-05-05T05:06:53.275Z,63.44
2023-05-05T05:09:22.488Z,62.99
2023-05-05T05:11:54.244Z,62.61
2023-05-05T05:14:22.925Z,62.35
2023-05-05T05:16:52.772Z,62.38
2023-05-05T05:19:22.814Z,61.94
2023-05-05T05:21:51.269Z,61.79
2023-05-05T05:24:20.014Z,61.70
2023-05-05T05:26:53.431Z,61.54
2023-05-05T05:29:22.414Z,61.14
2023-05-05T05:31:53.929Z,60.89
2023-05-05T05:34:22.962Z,60.67
2023-05-05T05:36:52.155Z,60.39
2023-05-05T05:39:22.072Z,60.05
2023-05-05T05:41:54.233Z,59.81
2023-05-05T05:44:27.933Z,59.52
2023-05-05T05:47:00.717Z,59.30
2023-05-05T05:49:29.819Z,59.14
2023-05-05T05:51:58.588Z,59.27
2023-05-05T05:54:29.646Z,58.98
2023-05-05T05:56:58.334Z,58.84
2023-05-05T05:59:31.829Z,58.66
2023-05-05T06:02:06.403Z,58.45
2023-05-05T06:04:35.927Z,58.13
2023-05-05T06:07:12.847Z,57.88
2023-05-05T06:09:41.874Z,57.09
2023-05-05T06:12:13.082Z,57.12
2023-05-05T06:14:44.329Z,56.76
2023-05-05T06:17:13.312Z,56.39
2023-05-05T06:19:56.836Z,56.53
2023-05-05T06:22:25.735Z,56.34
2023-05-05T06:24:54.821Z,55.91
2023-05-05T06:27:26.898Z,55.48
2023-05-05T06:29:58.033Z,55.31
2023-05-05T06:32:30.094Z,54.87
2023-05-05T06:34:58.894Z,54.27
2023-05-05T06:37:27.579Z,53.90
2023-05-05T06:39:56.982Z,53.13
2023-05-05T06:42:25.490Z,52.71
2023-05-05T06:44:54.457Z,52.61
2023-05-05T06:47:23.377Z,51.98
2023-05-05T06:49:52.260Z,51.27
2023-05-05T06:52:23.204Z,50.77
2023-05-05T06:54:51.958Z,50.11
2023-05-05T06:57:20.478Z,49.93
2023-05-05T06:59:49.009Z,49.54
2023-05-05T07:02:17.722Z,49.12
2023-05-05T07:04:46.718Z,48.51
2023-05-05T07:07:15.320Z,47.99
2023-05-05T07:09:45.430Z,47.92
2023-05-05T07:12:14.126Z,47.94
2023-05-05T07:14:42.587Z,47.52
2023-05-05T07:17:13.638Z,46.98
2023-05-05T07:19:45.280Z,46.28
2023-05-05T07:22:13.973Z,46.14
2023-05-05T07:24:42.462Z,46.03
2023-05-05T07:27:11.244Z,45.86
2023-05-05T07:29:39.828Z,45.70
2023-05-05T07:32:08.768Z,45.44
2023-05-05T07:34:38.339Z,44.98
2023-05-05T07:37:07.626Z,44.90
2023-05-05T07:39:36.306Z,44.60
2023-05-05T07:42:04.994Z,44.39
2023-05-05T07:44:33.829Z,44.03
2023-05-05T07:47:02.668Z,43.79
2023-05-05T07:49:31.265Z,44.01
2023-05-05T07:51:59.846Z,44.24
2023-05-05T07:54:29.142Z,43.47
2023-05-05T07:56:58.649Z,42.48
2023-05-05T07:59:27.330Z,42.87
2023-05-05T08:01:55.915Z,42.79
2023-05-05T08:04:24.460Z,42.41
2023-05-05T08:06:53.074Z,43.01
2023-05-05T08:09:21.357Z,42.16
2023-05-05T08:11:49.847Z,41.76
2023-05-05T08:14:18.215Z,41.17
2023-05-05T08:16:46.802Z,40.88
2023-05-05T08:19:27.678Z,40.77
2023-05-05T08:21:57.755Z,40.99
2023-05-05T08:24:27.825Z,40.74
2023-05-05T08:26:57.028Z,40.45
2023-05-05T08:29:25.702Z,39.87
2023-05-05T08:31:54.703Z,39.82
2023-05-05T08:34:23.283Z,40.18
2023-05-05T08:36:51.864Z,40.06
2023-05-05T08:39:20.137Z,39.60
2023-05-05T08:41:48.855Z,39.35
2023-05-05T08:44:17.412Z,38.68
2023-05-05T08:46:47.143Z,38.53
2023-05-05T08:49:18.054Z,38.10
2023-05-05T08:51:47.848Z,37.71
2023-05-05T08:54:20.288Z,38.00
2023-05-05T08:56:53.335Z,37.63
2023-05-05T08:59:25.455Z,37.35
2023-05-05T09:01:54.506Z,37.87
2023-05-05T09:04:23.164Z,37.54
2023-05-05T09:06:51.648Z,37.75
2023-05-05T09:09:20.855Z,37.61
2023-05-05T09:11:52.924Z,37.63
2023-05-05T09:14:21.618Z,37.39
2023-05-05T09:16:50.137Z,37.46
2023-05-05T09:19:18.679Z,37.03
2023-05-05T09:21:49.268Z,37.44
2023-05-05T09:24:17.566Z,37.47
2023-05-05T09:26:47.490Z,38.04
2023-05-05T09:29:23.458Z,37.68
2023-05-05T09:32:05.994Z,37.12
2023-05-05T09:34:36.409Z,37.06
2023-05-05T09:37:06.618Z,36.70
2023-05-05T09:39:35.900Z,37.07
2023-05-05T09:42:04.589Z,36.66
2023-05-05T09:44:38.088Z,35.35
2023-05-05T09:47:18.066Z,35.17
2023-05-05T09:49:59.826Z,35.43
2023-05-05T09:52:29.239Z,34.57
2023-05-05T09:54:58.354Z,34.78
2023-05-05T09:57:29.190Z,34.86
2023-05-05T10:00:02.560Z,34.56
2023-05-05T10:02:39.567Z,34.49
2023-05-05T10:05:13.064Z,33.50
2023-05-05T10:07:44.125Z,32.94
2023-05-05T10:10:15.369Z,32.65
2023-05-05T10:12:46.492Z,32.98
2023-05-05T10:15:16.237Z,32.29
2023-05-05T10:20:22.522Z,32.91
2023-05-05T10:22:53.609Z,33.67
2023-05-05T10:25:31.628Z,33.35
2023-05-05T10:28:07.009Z,32.58
2023-05-05T10:30:43.527Z,32.58
2023-05-05T10:36:00.486Z,32.61
2023-05-05T10:38:32.296Z,31.62
2023-05-05T10:41:02.297Z,31.78
2023-05-05T10:43:31.635Z,32.16
2023-05-05T10:46:01.158Z,32.20
2023-05-05T10:48:35.279Z,32.21
2023-05-05T10:51:13.194Z,32.84
2023-05-05T10:54:13.414Z,32.47
2023-05-05T10:56:43.373Z,32.71
2023-05-05T10:59:36.785Z,32.37
2023-05-05T11:02:31.881Z,32.05
2023-05-05T11:05:10.772Z,31.55
2023-05-05T11:07:40.215Z,31.86
2023-05-05T11:10:10.952Z,32.01
2023-05-05T11:13:03.053Z,31.70
2023-05-05T11:15:31.650Z,31.42
2023-05-05T11:18:06.712Z,31.23
2023-05-05T11:20:36.296Z,31.44
2023-05-05T11:23:05.154Z,31.54
2023-05-05T11:25:37.549Z,32.09
2023-05-05T11:28:18.049Z,31.24
2023-05-05T11:30:56.865Z,31.29
2023-05-05T11:33:31.585Z,31.31
2023-05-05T11:36:03.393Z,30.80
2023-05-05T11:38:36.534Z,30.79
2023-05-05T11:41:19.957Z,30.43
2023-05-05T11:43:48.958Z,29.66
2023-05-05T11:46:18.405Z,29.46
2023-05-05T11:48:49.351Z,30.37
2023-05-05T11:51:19.359Z,30.31
2023-05-05T11:53:51.000Z,30.54
2023-05-05T11:56:23.941Z,30.30
2023-05-05T11:59:25.722Z,29.55
2023-05-05T12:01:54.280Z,29.87
2023-05-05T12:04:23.235Z,29.99
2023-05-05T12:06:51.758Z,29.96
2023-05-05T12:09:21.877Z,29.15
2023-05-05T12:11:51.479Z,29.33
2023-05-05T12:14:21.197Z,29.38
2023-05-05T12:17:01.742Z,28.80
2023-05-05T12:19:33.679Z,28.47
2023-05-05T12:22:04.775Z,28.19
2023-05-05T12:24:33.720Z,27.67
2023-05-05T12:27:09.835Z,27.12
2023-05-05T12:29:38.315Z,27.23
2023-05-05T12:32:07.141Z,27.10
2023-05-05T12:34:36.088Z,27.63
2023-05-05T12:37:05.185Z,28.00
2023-05-05T12:39:37.148Z,27.76
2023-05-05T12:42:06.613Z,27.71
2023-05-05T12:44:38.929Z,27.47
2023-05-05T12:47:07.812Z,27.58
2023-05-05T12:49:52.178Z,27.12
2023-05-05T12:52:21.458Z,27.83
2023-05-05T12:54:58.761Z,27.77
2023-05-05T12:57:27.578Z,27.78
2023-05-05T12:59:56.690Z,28.09
2023-05-05T13:02:35.444Z,27.78
2023-05-05T13:05:04.687Z,26.51
2023-05-05T13:07:33.140Z,26.35
2023-05-05T13:10:10.964Z,25.95
2023-05-05T13:12:39.361Z,26.19
2023-05-05T13:15:08.899Z,26.40
2023-05-05T13:17:37.751Z,26.46
2023-05-05T13:20:11.442Z,25.69
2023-05-05T13:22:40.523Z,26.36
2023-05-05T13:25:09.915Z,26.62
2023-05-05T13:27:38.933Z,26.52
2023-05-05T13:56:44.954Z,25.92
2023-05-05T13:59:13.439Z,25.67
2023-05-05T14:01:41.936Z,26.33
2023-05-05T14:04:10.657Z,25.60
2023-05-05T14:06:39.197Z,25.11
2023-05-05T14:09:08.141Z,25.18
2023-05-05T14:11:36.673Z,25.47
2023-05-05T14:14:05.151Z,25.33
2023-05-05T14:16:33.575Z,24.84
2023-05-05T14:19:02.101Z,24.96
2023-05-05T14:21:31.941Z,25.15
2023-05-05T14:24:00.832Z,25.41
2023-05-05T19:14:54.321Z,42.81
2023-05-05T19:17:23.968Z,43.10
2023-05-05T19:19:54.729Z,43.21
2023-05-05T19:22:26.188Z,43.40
2023-05-05T19:24:56.135Z,43.71
2023-05-05T19:27:26.364Z,43.74
2023-05-05T19:29:56.936Z,44.00
2023-05-05T19:32:27.412Z,44.10
2023-05-05T19:34:58.763Z,44.14
2023-05-05T19:37:28.232Z,44.23
2023-05-05T19:40:01.249Z,44.53
2023-05-05T19:42:33.781Z,44.60
2023-05-05T19:45:05.422Z,44.90
2023-05-05T19:47:37.253Z,44.98
2023-05-05T19:50:08.142Z,45.08
2023-05-05T19:52:41.932Z,45.33
2023-05-05T19:55:15.381Z,45.46
2023-05-05T19:57:47.380Z,45.52
2023-05-05T20:00:20.776Z,45.69
2023-05-05T20:02:50.692Z,46.11
2023-05-05T20:05:20.562Z,46.37
2023-05-05T20:07:51.596Z,46.42
2023-05-05T20:10:21.805Z,46.45
2023-05-05T20:12:53.441Z,46.80
2023-05-05T20:15:24.246Z,46.87
2023-05-05T20:17:55.712Z,46.97
2023-05-05T20:20:27.078Z,47.20
2023-05-05T20:22:57.993Z,47.33
2023-05-05T20:25:27.956Z,47.25
2023-05-05T20:27:57.687Z,47.40
2023-05-05T20:30:38.034Z,47.47
2023-05-05T20:33:08.046Z,47.70
2023-05-05T20:35:37.983Z,47.62
2023-05-05T20:38:10.439Z,47.64
2023-05-05T20:40:41.113Z,47.99
2023-05-05T20:43:13.128Z,48.12
2023-05-05T20:45:46.637Z,48.16
2023-05-05T20:48:16.806Z,48.32
2023-05-05T20:50:46.549Z,48.26
2023-05-05T20:53:19.402Z,48.44
2023-05-05T20:55:56.531Z,48.43
2023-05-05T20:58:26.828Z,48.53
2023-05-05T21:00:57.431Z,48.57
2023-05-05T21:03:30.043Z,48.68
2023-05-05T21:06:01.099Z,48.70
2023-05-05T21:08:32.244Z,48.90
2023-05-05T21:11:12.938Z,48.97
2023-05-05T21:13:42.214Z,49.12
2023-05-05T21:16:16.476Z,49.07
2023-05-05T21:18:48.993Z,49.23
2023-05-05T21:21:19.457Z,49.31
2023-05-05T21:23:48.526Z,49.48
2023-05-05T21:26:21.319Z,49.51
2023-05-05T21:28:50.415Z,49.55
2023-05-05T21:31:22.260Z,49.49
2023-05-05T21:33:51.558Z,49.74
2023-05-05T21:36:21.777Z,49.73
2023-05-05T21:38:51.298Z,49.89
2023-05-05T21:41:20.083Z,50.19
2023-05-05T21:43:59.116Z,50.21
2023-05-05T21:46:31.589Z,50.50
2023-05-05T21:49:00.925Z,50.64
2023-05-05T21:51:29.782Z,50.75
2023-05-05T21:53:59.185Z,50.82
2023-05-05T21:56:28.400Z,50.80
2023-05-05T21:59:01.478Z,50.96
2023-05-05T22:01:37.977Z,51.00
2023-05-05T22:04:08.650Z,51.09
2023-05-05T22:06:38.574Z,51.25
2023-05-05T22:09:19.262Z,51.35
2023-05-05T22:11:50.919Z,51.33
2023-05-05T22:14:22.438Z,51.36
2023-05-05T22:16:57.189Z,51.42
2023-05-05T22:19:26.029Z,51.61
2023-05-05T22:22:00.514Z,51.52
2023-05-05T22:24:30.223Z,51.69
2023-05-05T22:26:59.160Z,51.69
2023-05-05T22:29:30.966Z,51.72
2023-05-05T22:31:59.963Z,51.88
2023-05-05T22:34:31.731Z,51.81
2023-05-05T22:37:07.881Z,51.98
2023-05-05T22:39:36.668Z,51.97
2023-05-05T22:42:05.965Z,52.00
2023-05-05T22:44:54.912Z,52.03
2023-05-05T22:47:26.939Z,52.25
2023-05-05T22:49:59.265Z,52.29
2023-05-05T22:52:31.020Z,52.37
2023-05-05T22:55:01.816Z,52.50
2023-05-05T22:57:36.974Z,52.48
2023-05-05T23:00:08.804Z,52.55
2023-05-05T23:02:38.274Z,52.64
2023-05-05T23:05:10.834Z,52.62
2023-05-05T23:07:41.153Z,52.78
2023-05-05T23:10:14.213Z,52.77
2023-05-05T23:12:46.670Z,52.78
2023-05-05T23:15:18.799Z,52.96
2023-05-05T23:18:01.129Z,52.90
2023-05-05T23:20:42.987Z,53.00
2023-05-05T23:23:18.272Z,52.94
2023-05-05T23:25:52.143Z,53.12
2023-05-05T23:28:20.914Z,53.09
2023-05-05T23:30:52.644Z,53.26
2023-05-05T23:33:27.717Z,53.11
2023-05-05T23:35:59.566Z,53.23
2023-05-05T23:38:39.136Z,53.37
2023-05-05T23:41:19.172Z,53.33
2023-05-05T23:43:48.593Z,53.43
2023-05-05T23:46:17.637Z,53.60
2023-05-05T23:48:49.932Z,53.53
2023-05-05T23:51:19.050Z,53.66
2023-05-05T23:53:48.021Z,53.65
2023-05-05T23:56:19.176Z,53.72
2023-05-05T23:58:52.633Z,53.78
